createdAt,value
2023-04-18T00:01:26.814Z,94.14
2023-04-18T00:03:54.620Z,93.86
2023-04-18T00:06:22.454Z,93.57
2023-04-18T00:08:50.257Z,93.48
2023-04-18T00:11:18.042Z,93.56
2023-04-18T00:13:47.515Z,93.42
2023-04-18T00:16:15.770Z,93.32
2023-04-18T00:18:43.496Z,93.17
2023-04-18T00:21:12.165Z,93.32
2023-04-18T00:23:41.686Z,93.39
2023-04-18T00:26:09.647Z,93.30
2023-04-18T00:28:37.358Z,92.87
2023-04-18T00:31:05.364Z,92.82
2023-04-18T00:33:34.491Z,93.05
2023-04-18T00:36:02.284Z,93.10
2023-04-18T00:38:29.936Z,92.71
2023-04-18T00:40:57.769Z,92.78
2023-04-18T00:43:25.383Z,93.07
2023-04-18T00:45:53.377Z,93.18
2023-04-18T00:48:21.188Z,93.32
2023-04-18T00:50:48.893Z,93.07
2023-04-18T00:53:16.710Z,93.07
2023-04-18T00:55:44.575Z,92.96
2023-04-18T00:58:12.325Z,92.89
2023-04-18T01:00:40.855Z,92.61
2023-04-18T01:03:09.127Z,92.48
2023-04-18T01:05:38.025Z,92.47
2023-04-18T01:08:06.165Z,92.40
2023-04-18T01:10:34.011Z,92.58
2023-04-18T01:13:12.259Z,92.59
2023-04-18T01:15:41.880Z,92.87
2023-04-18T01:18:10.876Z,93.05
2023-04-18T01:20:41.647Z,93.04
2023-04-18T01:23:12.134Z,93.04
2023-04-18T01:25:39.797Z,93.05
2023-04-18T01:28:07.924Z,93.02
2023-04-18T01:30:36.008Z,92.81
2023-04-18T01:33:05.169Z,92.74
2023-04-18T01:35:33.903Z,92.64
2023-04-18T01:38:01.939Z,92.69
2023-04-18T01:40:30.275Z,92.69
2023-04-18T01:42:58.016Z,92.95
2023-04-18T01:45:25.706Z,93.16
2023-04-18T01:47:53.444Z,92.99
2023-04-18T01:50:21.105Z,92.87
2023-04-18T01:52:48.702Z,92.87
2023-04-18T01:55:16.437Z,92.67
2023-04-18T01:57:44.295Z,92.67
2023-04-18T02:00:12.637Z,92.86
2023-04-18T02:02:40.483Z,92.77
2023-04-18T02:05:08.992Z,92.82
2023-04-18T02:07:36.808Z,92.45
2023-04-18T02:10:04.964Z,92.50
2023-04-18T02:12:32.744Z,92.65
2023-04-18T02:15:00.465Z,92.73
2023-04-18T02:17:29.107Z,92.57
2023-04-18T02:19:56.773Z,92.80
2023-04-18T02:22:24.446Z,92.90
2023-04-18T02:24:53.215Z,93.17
2023-04-18T02:27:21.029Z,93.23
2023-04-18T02:29:48.631Z,93.18
2023-04-18T02:32:16.443Z,93.19
2023-04-18T02:34:44.085Z,93.40
2023-04-18T02:37:11.776Z,93.58
2023-04-18T02:39:39.542Z,93.45
2023-04-18T02:42:07.300Z,93.39
2023-04-18T02:44:34.858Z,93.46
2023-04-18T02:47:02.585Z,93.40
2023-04-18T02:49:30.320Z,93.47
2023-04-18T02:51:58.007Z,93.60
2023-04-18T02:54:25.745Z,93.51
2023-04-18T02:56:54.719Z,93.58
2023-04-18T02:59:22.462Z,93.59
2023-04-18T03:01:50.218Z,93.90
2023-04-18T03:04:17.919Z,94.09
2023-04-18T03:06:46.002Z,94.16
2023-04-18T03:09:14.034Z,93.99
2023-04-18T03:11:41.718Z,93.97
2023-04-18T03:14:09.361Z,94.03
2023-04-18T03:16:37.448Z,94.21
2023-04-18T03:19:05.762Z,94.26
2023-04-18T03:21:33.418Z,94.26
2023-04-18T03:24:01.028Z,94.22
2023-04-18T03:26:28.821Z,94.36
2023-04-18T03:28:56.503Z,94.14
2023-04-18T03:31:24.346Z,94.18
2023-04-18T03:33:51.992Z,93.99
2023-04-18T03:36:21.595Z,93.77
2023-04-18T03:38:49.251Z,93.74
2023-04-18T03:41:16.914Z,93.75
2023-04-18T03:43:44.525Z,93.65
2023-04-18T03:46:13.712Z,93.61
2023-04-18T03:48:41.377Z,93.68
2023-04-18T03:51:08.963Z,93.81
2023-04-18T03:53:36.720Z,93.89
2023-04-18T03:56:04.481Z,93.86
2023-04-18T03:58:32.101Z,93.82
2023-04-18T04:01:01.080Z,93.64
2023-04-18T04:03:28.916Z,93.54
2023-04-18T04:05:56.983Z,93.29
2023-04-18T04:08:26.421Z,92.93
2023-04-18T04:10:56.170Z,92.86
2023-04-18T04:13:23.871Z,92.55
2023-04-18T04:15:52.155Z,92.51
2023-04-18T04:18:20.234Z,92.38
2023-04-18T04:20:48.041Z,91.96
2023-04-18T04:23:15.826Z,91.71
2023-04-18T04:25:46.418Z,91.62
2023-04-18T04:28:14.219Z,91.53
2023-04-18T04:30:41.918Z,91.47
2023-04-18T04:33:09.620Z,91.36
2023-04-18T04:35:37.285Z,91.26
2023-04-18T04:38:05.728Z,91.13
2023-04-18T04:40:33.360Z,90.98
2023-04-18T04:43:01.400Z,91.20
2023-04-18T04:45:29.124Z,90.89
2023-04-18T04:47:57.144Z,90.20
2023-04-18T04:50:25.577Z,89.65
2023-04-18T04:52:56.482Z,89.02
2023-04-18T04:55:24.645Z,89.23
2023-04-18T04:57:52.358Z,88.89
2023-04-18T05:00:21.589Z,88.85
2023-04-18T05:02:49.524Z,88.59
2023-04-18T05:05:17.647Z,88.02
2023-04-18T05:07:45.485Z,87.87
2023-04-18T05:10:13.420Z,87.57
2023-04-18T05:12:41.212Z,87.35
2023-04-18T05:15:09.554Z,87.28
2023-04-18T05:17:37.312Z,86.96
2023-04-18T05:20:06.200Z,86.76
2023-04-18T05:22:33.931Z,86.03
2023-04-18T05:25:03.192Z,85.51
2023-04-18T05:27:30.967Z,84.86
2023-04-18T05:29:58.653Z,84.56
2023-04-18T05:32:26.383Z,84.13
2023-04-18T05:34:54.198Z,83.91
2023-04-18T05:37:22.592Z,83.98
2023-04-18T05:39:50.512Z,84.01
2023-04-18T05:42:18.309Z,83.33
2023-04-18T05:44:46.015Z,83.24
2023-04-18T05:47:13.788Z,83.37
2023-04-18T05:49:41.438Z,83.23
2023-04-18T05:52:09.262Z,83.37
2023-04-18T05:54:37.261Z,83.52
2023-04-18T05:57:05.022Z,83.07
2023-04-18T05:59:32.833Z,83.32
2023-04-18T06:02:00.982Z,83.27
2023-04-18T06:04:28.934Z,82.78
2023-04-18T06:06:56.876Z,82.59
2023-04-18T06:09:24.575Z,82.30
2023-04-18T06:11:52.257Z,82.18
2023-04-18T06:14:20.036Z,81.83
2023-04-18T06:16:47.895Z,81.76
2023-04-18T06:19:18.869Z,82.06
2023-04-18T06:21:48.703Z,82.26
2023-04-18T06:24:16.710Z,82.14
2023-04-18T06:26:44.625Z,81.94
2023-04-18T06:29:12.420Z,81.28
2023-04-18T06:31:42.298Z,81.09
2023-04-18T06:34:10.100Z,81.02
2023-04-18T06:36:38.766Z,81.05
2023-04-18T06:39:07.020Z,80.58
2023-04-18T06:41:34.694Z,80.63
2023-04-18T06:44:04.410Z,80.37
2023-04-18T06:46:33.643Z,80.37
2023-04-18T06:49:04.722Z,80.11
2023-04-18T06:51:33.786Z,80.00
2023-04-18T06:54:01.708Z,80.14
2023-04-18T06:56:29.662Z,79.93
2023-04-18T06:58:57.424Z,79.41
2023-04-18T07:01:25.324Z,79.20
2023-04-18T07:03:53.149Z,79.22
2023-04-18T07:06:21.516Z,79.34
2023-04-18T07:08:49.594Z,79.29
2023-04-18T07:11:18.640Z,79.39
2023-04-18T07:13:48.828Z,78.47
2023-04-18T07:16:17.207Z,78.02
2023-04-18T07:18:46.301Z,77.72
2023-04-18T07:21:14.133Z,76.81
2023-04-18T07:23:42.374Z,76.57
2023-04-18T07:26:11.468Z,75.85
2023-04-18T07:28:39.248Z,75.11
2023-04-18T07:31:11.255Z,73.82
2023-04-18T07:33:39.118Z,72.94
2023-04-18T07:36:08.371Z,72.07
2023-04-18T07:38:36.629Z,71.23
2023-04-18T07:41:04.393Z,70.22
2023-04-18T07:43:32.631Z,69.95
2023-04-18T07:46:00.690Z,69.46
2023-04-18T07:48:28.394Z,68.90
2023-04-18T07:50:56.484Z,68.03
2023-04-18T07:53:24.295Z,66.99
2023-04-18T07:55:51.987Z,66.16
2023-04-18T07:58:19.878Z,65.31
2023-04-18T08:00:47.692Z,64.66
2023-04-18T08:03:16.325Z,63.67
2023-04-18T08:05:44.166Z,58.15
2023-04-18T08:08:13.457Z,55.82
2023-04-18T08:10:41.310Z,53.89
2023-04-18T08:13:09.565Z,51.50
2023-04-18T08:15:37.455Z,50.10
2023-04-18T08:18:05.355Z,51.13
2023-04-18T08:20:34.387Z,51.54
2023-04-18T08:23:08.581Z,51.68
2023-04-18T08:25:38.274Z,52.01
2023-04-18T08:28:06.004Z,51.38
2023-04-18T08:30:34.053Z,49.30
2023-04-18T08:33:02.783Z,47.80
2023-04-18T08:35:30.758Z,46.68
2023-04-18T08:37:58.623Z,46.17
2023-04-18T08:40:26.439Z,45.51
2023-04-18T08:42:57.359Z,44.80
2023-04-18T08:45:25.137Z,44.85
2023-04-18T08:47:53.530Z,44.38
2023-04-18T08:50:21.698Z,45.11
2023-04-18T08:52:50.740Z,45.03
2023-04-18T08:55:19.595Z,44.66
2023-04-18T08:57:48.696Z,42.96
2023-04-18T09:00:18.109Z,41.94
2023-04-18T09:02:47.392Z,41.74
2023-04-18T09:05:19.474Z,41.99
2023-04-18T09:07:48.936Z,43.00
2023-04-18T09:10:34.203Z,44.03
2023-04-18T09:13:03.717Z,44.93
2023-04-18T09:15:31.923Z,46.51
2023-04-18T09:18:03.334Z,45.93
2023-04-18T09:20:41.463Z,46.38
2023-04-18T09:23:14.373Z,46.44
2023-04-18T09:25:44.780Z,45.92
2023-04-18T09:28:35.547Z,45.20
2023-04-18T09:31:04.400Z,45.05
2023-04-18T09:33:37.054Z,43.68
2023-04-18T09:36:18.804Z,43.69
2023-04-18T09:38:48.168Z,43.57
2023-04-18T09:41:19.895Z,42.26
2023-04-18T09:43:49.407Z,40.28
2023-04-18T09:46:17.902Z,39.44
2023-04-18T09:48:45.744Z,38.65
2023-04-18T09:51:16.875Z,38.73
2023-04-18T09:53:51.618Z,38.21
2023-04-18T09:56:46.042Z,37.65
2023-04-18T09:59:41.931Z,36.69
2023-04-18T10:02:23.862Z,36.13
2023-04-18T10:04:57.144Z,35.45
2023-04-18T10:07:26.821Z,34.67
2023-04-18T10:10:03.125Z,35.15
2023-04-18T10:12:33.931Z,35.44
2023-04-18T10:15:03.771Z,35.47
2023-04-18T10:20:30.486Z,38.23
2023-04-18T10:23:00.870Z,38.97
2023-04-18T10:25:37.988Z,39.26
2023-04-18T10:28:07.502Z,39.82
2023-04-18T10:30:40.236Z,39.30
2023-04-18T10:33:31.165Z,38.40
2023-04-18T10:36:05.308Z,38.10
2023-04-18T10:38:34.502Z,37.42
2023-04-18T10:41:19.685Z,36.95
2023-04-18T10:44:23.908Z,38.68
2023-04-18T10:46:52.354Z,39.49
2023-04-18T10:49:32.652Z,39.15
2023-04-18T10:52:02.398Z,38.71
2023-04-18T10:54:59.700Z,37.72
2023-04-18T10:57:48.215Z,37.33
2023-04-18T11:00:22.785Z,35.15
2023-04-18T11:02:58.045Z,33.13
2023-04-18T11:05:29.293Z,32.60
2023-04-18T11:07:59.702Z,33.00
2023-04-18T11:10:29.558Z,34.14
2023-04-18T11:13:05.623Z,34.67
2023-04-18T11:15:43.477Z,35.37
2023-04-18T11:18:13.885Z,37.10
2023-04-18T11:20:50.067Z,38.02
2023-04-18T11:23:52.897Z,38.28
2023-04-18T11:27:14.554Z,39.69
2023-04-18T11:31:03.415Z,41.55
2023-04-18T11:34:45.508Z,43.31
2023-04-18T11:38:29.600Z,44.98
2023-04-18T11:41:51.452Z,46.39
2023-04-18T11:44:26.803Z,46.38
2023-04-18T11:46:55.209Z,46.11
2023-04-18T11:49:33.077Z,45.96
2023-04-18T11:52:01.753Z,46.82
2023-04-18T11:55:27.686Z,47.46
2023-04-18T11:58:02.849Z,48.18
2023-04-18T12:00:42.695Z,48.64
2023-04-18T12:03:16.703Z,48.83
2023-04-18T12:05:49.371Z,48.43
2023-04-18T12:08:25.415Z,48.06
2023-04-18T12:10:54.579Z,47.92
2023-04-18T12:13:36.551Z,47.98
2023-04-18T12:16:07.782Z,47.22
2023-04-18T12:18:43.065Z,47.52
2023-04-18T12:23:30.632Z,47.89
2023-04-18T12:26:01.985Z,48.36
2023-04-18T12:28:34.035Z,48.71
2023-04-18T12:31:07.523Z,48.65
2023-04-18T12:33:36.808Z,48.39
2023-04-18T12:36:05.632Z,48.18
2023-04-18T12:38:33.535Z,47.65
2023-04-18T12:41:01.542Z,47.55
2023-04-18T12:43:29.396Z,47.54
2023-04-18T12:45:57.190Z,47.58
2023-04-18T12:48:25.407Z,47.65
2023-04-18T12:50:55.154Z,47.64
2023-04-18T12:53:23.152Z,47.48
2023-04-18T12:55:51.714Z,47.44
2023-04-18T12:58:20.724Z,48.15
2023-04-18T13:00:48.493Z,48.37
2023-04-18T13:03:16.490Z,48.32
2023-04-18T13:05:44.763Z,48.43
2023-04-18T13:08:17.147Z,48.60
2023-04-18T13:10:47.662Z,48.56
2023-04-18T13:13:15.549Z,48.07
2023-04-18T13:15:43.672Z,47.63
2023-04-18T13:18:11.627Z,46.90
2023-04-18T13:20:40.492Z,45.78
2023-04-18T13:23:08.182Z,45.78
2023-04-18T13:25:36.206Z,45.29
2023-04-18T13:28:04.362Z,45.68
2023-04-18T13:30:33.203Z,45.85
2023-04-18T13:33:01.393Z,46.45
2023-04-18T13:35:29.226Z,46.37
2023-04-18T13:38:05.715Z,46.64
2023-04-18T13:40:33.578Z,47.11
2023-04-18T13:43:01.452Z,47.18
2023-04-18T13:45:29.309Z,46.82
2023-04-18T13:47:57.010Z,47.38
2023-04-18T13:50:25.765Z,47.37
2023-04-18T13:52:57.237Z,47.69
2023-04-18T13:55:25.299Z,47.07
2023-04-18T13:57:53.736Z,47.67
2023-04-18T14:00:21.669Z,48.03
2023-04-18T14:02:49.691Z,47.97
2023-04-18T14:05:17.874Z,47.33
2023-04-18T14:07:46.055Z,47.23
2023-04-18T14:10:26.777Z,46.97
2023-04-18T14:13:01.854Z,46.87
2023-04-18T14:15:30.110Z,46.14
2023-04-18T14:17:58.088Z,46.05
2023-04-18T14:20:36.277Z,45.63
2023-04-18T14:23:04.203Z,45.79
2023-04-18T14:25:38.132Z,45.08
2023-04-18T14:28:13.536Z,44.72
2023-04-18T14:30:42.316Z,44.40
2023-04-18T14:33:10.465Z,44.73
2023-04-18T14:35:41.634Z,44.40
2023-04-18T14:38:09.848Z,44.32
2023-04-18T14:40:38.080Z,44.89
2023-04-18T14:43:05.948Z,44.70
2023-04-18T14:45:36.673Z,44.94
2023-04-18T14:48:08.109Z,45.36
2023-04-18T14:50:38.747Z,45.58
2023-04-18T14:53:07.160Z,45.62
2023-04-18T14:55:35.150Z,46.08
2023-04-18T14:58:03.100Z,46.46
2023-04-18T15:00:33.762Z,46.19
2023-04-18T15:03:01.702Z,46.58
2023-04-18T15:05:29.726Z,46.69
2023-04-18T15:07:58.164Z,46.27
2023-04-18T15:10:25.972Z,46.67
2023-04-18T15:12:53.673Z,46.56
2023-04-18T15:15:22.678Z,46.63
2023-04-18T15:17:50.556Z,46.60
2023-04-18T15:20:18.424Z,46.74
2023-04-18T15:22:46.123Z,46.92
2023-04-18T15:25:17.147Z,46.67
2023-04-18T15:27:44.853Z,47.17
2023-04-18T15:30:13.979Z,47.19
2023-04-18T15:32:42.234Z,47.56
2023-04-18T15:35:13.917Z,47.75
2023-04-18T15:37:41.926Z,47.75
2023-04-18T15:40:11.578Z,47.54
2023-04-18T15:42:40.737Z,47.22
2023-04-18T15:45:08.911Z,47.06
2023-04-18T15:47:37.134Z,47.43
2023-04-18T15:50:05.465Z,47.35
2023-04-18T15:52:33.355Z,47.28
2023-04-18T15:55:01.423Z,47.18
2023-04-18T15:57:32.255Z,47.21
2023-04-18T16:00:00.117Z,46.88
2023-04-18T16:02:29.523Z,47.29
2023-04-18T16:04:57.232Z,46.82
2023-04-18T16:07:24.958Z,46.96
2023-04-18T16:09:52.715Z,46.98
2023-04-18T16:12:20.324Z,46.68
2023-04-18T16:14:48.905Z,46.83
2023-04-18T16:17:16.623Z,46.85
2023-04-18T16:19:44.539Z,46.86
2023-04-18T16:22:12.793Z,47.30
2023-04-18T16:24:42.801Z,47.14
2023-04-18T16:27:10.740Z,47.16
2023-04-18T16:29:38.878Z,46.97
2023-04-18T16:32:07.223Z,47.41
2023-04-18T16:34:35.294Z,47.79
2023-04-18T16:37:03.094Z,48.06
2023-04-18T16:39:31.323Z,48.19
2023-04-18T16:41:59.360Z,48.22
2023-04-18T16:44:27.285Z,48.47
2023-04-18T16:46:55.833Z,49.11
2023-04-18T16:49:24.148Z,49.31
2023-04-18T16:51:53.389Z,49.53
2023-04-18T16:54:21.618Z,49.82
2023-04-18T16:56:50.116Z,49.84
2023-04-18T16:59:18.316Z,50.70
2023-04-18T17:01:46.734Z,50.29
2023-04-18T17:04:18.377Z,50.24
2023-04-18T17:06:46.683Z,50.65
2023-04-18T17:09:15.496Z,51.30
2023-04-18T17:11:43.632Z,51.29
2023-04-18T17:14:11.969Z,50.96
2023-04-18T17:16:41.658Z,51.13
2023-04-18T17:19:10.447Z,51.91
2023-04-18T17:21:38.457Z,52.03
2023-04-18T17:24:07.195Z,51.78
2023-04-18T17:26:36.993Z,52.24
2023-04-18T17:29:05.147Z,53.24
2023-04-18T17:31:33.193Z,53.36
2023-04-18T17:34:01.038Z,53.06
2023-04-18T17:36:30.772Z,53.09
2023-04-18T17:39:08.222Z,52.81
2023-04-18T17:41:37.983Z,52.59
2023-04-18T17:44:07.502Z,53.00
2023-04-18T17:46:35.985Z,54.27
2023-04-18T17:49:04.748Z,54.94
2023-04-18T17:51:32.778Z,55.42
2023-04-18T17:54:00.459Z,55.82
2023-04-18T17:56:30.890Z,55.72
2023-04-18T17:58:58.822Z,56.10
2023-04-18T18:01:28.786Z,55.74
2023-04-18T18:04:00.938Z,55.69
2023-04-18T18:06:46.644Z,55.59
2023-04-18T18:09:14.709Z,56.08
2023-04-18T18:11:46.534Z,56.31
2023-04-18T18:14:15.101Z,56.23
2023-04-18T18:16:43.704Z,56.20
2023-04-18T18:19:12.637Z,56.70
2023-04-18T18:21:41.521Z,57.11
2023-04-18T18:24:13.230Z,57.29
2023-04-18T18:26:41.375Z,57.67
2023-04-18T18:29:09.503Z,57.56
2023-04-18T18:31:38.250Z,57.72
2023-04-18T18:34:06.775Z,57.76
2023-04-18T18:36:34.901Z,57.55
2023-04-18T18:39:02.899Z,57.88
2023-04-18T18:41:30.739Z,58.38
2023-04-18T18:44:00.301Z,58.46
2023-04-18T18:46:29.314Z,58.39
2023-04-18T18:48:57.241Z,58.29
2023-04-18T18:51:27.270Z,57.76
2023-04-18T18:53:56.771Z,57.70
2023-04-18T18:56:24.677Z,57.41
2023-04-18T18:58:57.176Z,57.41
2023-04-18T19:01:25.265Z,57.24
2023-04-18T19:03:53.344Z,57.17
2023-04-18T19:06:21.609Z,57.04
2023-04-18T19:08:51.577Z,57.06
2023-04-18T19:11:19.668Z,56.92
2023-04-18T19:13:47.451Z,56.57
2023-04-18T19:16:15.262Z,56.92
2023-04-18T19:18:47.047Z,56.82
2023-04-18T19:21:15.864Z,56.97
2023-04-18T19:23:43.683Z,56.63
2023-04-18T19:26:11.503Z,56.65
2023-04-18T19:28:39.250Z,56.54
2023-04-18T19:31:09.212Z,56.67
2023-04-18T19:33:37.966Z,56.47
2023-04-18T19:36:06.802Z,56.44
2023-04-18T19:38:35.132Z,56.74
2023-04-18T19:41:02.795Z,56.98
2023-04-18T19:43:30.617Z,57.03
2023-04-18T19:45:59.213Z,57.27
2023-04-18T19:48:27.852Z,57.36
2023-04-18T19:50:56.423Z,57.18
2023-04-18T19:53:24.533Z,57.70
2023-04-18T19:55:53.824Z,57.73
2023-04-18T19:58:34.818Z,57.47
2023-04-18T20:01:05.862Z,57.53
2023-04-18T20:03:34.318Z,57.73
2023-04-18T20:06:02.564Z,57.63
2023-04-18T20:08:30.821Z,57.69
2023-04-18T20:10:58.618Z,57.17
2023-04-18T20:13:26.304Z,57.53
2023-04-18T20:16:12.276Z,57.63
2023-04-18T20:18:44.426Z,58.39
2023-04-18T20:21:12.294Z,58.11
2023-04-18T20:23:42.324Z,58.29
2023-04-18T20:26:10.277Z,58.19
2023-04-18T20:28:39.716Z,58.41
2023-04-18T20:31:07.736Z,58.66
2023-04-18T20:33:36.766Z,58.99
2023-04-18T20:36:06.502Z,59.35
2023-04-18T20:38:34.440Z,59.20
2023-04-18T20:41:02.927Z,59.41
2023-04-18T20:43:30.756Z,59.02
2023-04-18T20:45:58.666Z,59.23
2023-04-18T20:48:26.470Z,59.42
2023-04-18T20:50:55.775Z,59.74
2023-04-18T20:53:27.168Z,59.77
2023-04-18T20:55:55.134Z,60.37
2023-04-18T20:58:23.026Z,60.14
2023-04-18T21:00:50.936Z,60.24
2023-04-18T21:03:18.766Z,60.45
2023-04-18T21:05:46.636Z,60.53
2023-04-18T21:08:14.518Z,60.44
2023-04-18T21:10:42.361Z,60.59
2023-04-18T21:13:12.603Z,60.74
2023-04-18T21:15:42.030Z,61.10
2023-04-18T21:18:10.005Z,60.98
2023-04-18T21:23:45.158Z,61.30
2023-04-18T21:26:13.291Z,61.42
2023-04-18T21:29:06.065Z,61.55
2023-04-18T21:31:34.159Z,61.84
2023-04-18T21:34:03.856Z,61.93
2023-04-18T21:36:30.916Z,61.86
2023-04-18T21:38:58.987Z,61.87
2023-04-18T21:41:26.581Z,62.17
2023-04-18T21:43:52.983Z,62.29
2023-04-18T21:46:20.018Z,62.55
2023-04-18T21:48:47.016Z,62.52
2023-04-18T21:51:15.304Z,62.15
2023-04-18T21:53:42.314Z,62.33
2023-04-18T21:56:08.828Z,62.30
2023-04-18T21:58:35.153Z,62.34
2023-04-18T22:01:02.009Z,62.66
2023-04-18T22:03:30.851Z,62.49
2023-04-18T22:05:57.851Z,62.79
2023-04-18T22:08:25.031Z,62.87
2023-04-18T22:10:54.377Z,63.01
2023-04-18T22:13:21.688Z,63.10
2023-04-18T22:15:49.344Z,62.98
2023-04-18T22:18:15.677Z,63.37
2023-04-18T22:20:42.517Z,63.30
2023-04-18T22:23:10.049Z,63.53
2023-04-18T22:25:36.752Z,63.82
2023-04-18T22:28:04.142Z,63.89
2023-04-18T22:30:31.117Z,64.15
2023-04-18T22:32:58.481Z,64.15
2023-04-18T22:35:26.334Z,64.37
2023-04-18T22:37:52.818Z,64.53
2023-04-18T22:40:19.444Z,64.96
2023-04-18T22:42:46.119Z,65.00
2023-04-18T22:45:12.894Z,65.18
2023-04-18T22:47:39.350Z,65.13
2023-04-18T22:50:06.563Z,65.34
2023-04-18T22:52:33.858Z,64.98
2023-04-18T22:55:01.842Z,65.12
2023-04-18T22:57:28.908Z,65.48
2023-04-18T22:59:55.452Z,65.79
2023-04-18T23:02:21.866Z,66.75
2023-04-18T23:04:48.854Z,67.52
2023-04-18T23:07:16.501Z,68.01
2023-04-18T23:09:42.941Z,67.81
2023-04-18T23:12:09.293Z,67.77
2023-04-18T23:14:35.746Z,67.78
2023-04-18T23:17:02.096Z,67.62
2023-04-18T23:19:28.531Z,67.67
2023-04-18T23:21:54.986Z,67.40
2023-04-18T23:24:21.544Z,67.15
2023-04-18T23:26:47.859Z,66.50
2023-04-18T23:29:14.312Z,66.17
2023-04-18T23:31:40.778Z,66.29
2023-04-18T23:34:07.200Z,66.36
2023-04-18T23:36:33.578Z,66.92
2023-04-18T23:38:59.931Z,67.58
2023-04-18T23:41:26.311Z,68.51
2023-04-18T23:43:52.999Z,69.51
2023-04-18T23:46:19.299Z,70.10
2023-04-18T23:48:46.780Z,70.87
2023-04-18T23:51:13.152Z,72.68
2023-04-18T23:53:39.973Z,74.47
2023-04-18T23:56:06.524Z,75.62
2023-04-18T23:58:33.409Z,76.87
